Time;durP1;ratioP1;P1;durP2;ratioP2;P2;SDS_P1;SDS_P2;PMS_P1;PMS_P2;Temp;Humidity;BMP_temperature;BMP_pressure;BME280_temperature;BME280_humidity;BME280_pressure;Samples;Min_cycle;Max_cycle;Signal;HPM_P1;HPM_P2
2021/05/18 00:00:24;;;;;;;1.08;0.77;;;;;;;;;;5047543;28;20462;-74
2021/05/18 00:02:50;;;;;;;2.65;0.85;;;;;;;;;;5048285;28;20171;-74
2021/05/18 00:05:17;;;;;;;1.35;0.60;;;;;;;;;;5048287;28;20025;-74
2021/05/18 00:08:04;;;;;;;0.68;0.65;;;;;;;;;;5048380;28;20255;-74
2021/05/18 00:13:17;;;;;;;2.38;0.90;;;;;;;;;;5047966;28;20464;-74
2021/05/18 00:15:43;;;;;;;0.68;0.50;;;;;;;;;;5048633;28;20102;-74
2021/05/18 00:18:09;;;;;;;0.70;0.70;;;;;;;;;;5047951;28;20104;-74
2021/05/18 00:20:36;;;;;;;0.52;0.38;;;;;;;;;;5048405;28;20025;-74
2021/05/18 00:23:06;;;;;;;2.78;0.80;;;;;;;;;;5047404;28;20029;-74
2021/05/18 00:25:32;;;;;;;1.63;0.93;;;;;;;;;;5048225;28;20055;-74
2021/05/18 00:27:58;;;;;;;2.28;0.70;;;;;;;;;;5048188;28;20100;-74
2021/05/18 00:30:25;;;;;;;1.70;0.93;;;;;;;;;;5046990;28;20033;-74
2021/05/18 00:32:51;;;;;;;0.85;0.70;;;;;;;;;;5048046;28;20483;-74
2021/05/18 00:35:18;;;;;;;0.57;0.55;;;;;;;;;;5048043;28;20368;-74
2021/05/18 00:37:44;;;;;;;0.68;0.60;;;;;;;;;;5047876;28;20125;-74
2021/05/18 00:40:12;;;;;;;1.75;0.80;;;;;;;;;;5047642;28;20166;-74
2021/05/18 00:42:46;;;;;;;0.85;0.82;;;;;;;;;;5047550;28;20395;-74
2021/05/18 00:45:13;;;;;;;0.70;0.70;;;;;;;;;;5047330;28;20025;-74
2021/05/18 00:47:39;;;;;;;0.95;0.50;;;;;;;;;;5049065;28;20090;-74
2021/05/18 00:50:06;;;;;;;0.50;0.50;;;;;;;;;;5067695;28;20029;-74
2021/05/18 00:52:32;;;;;;;0.80;0.80;;;;;;;;;;5047438;28;20025;-74
2021/05/18 00:55:06;;;;;;;1.05;0.95;;;;;;;;;;5047698;28;20029;-74
2021/05/18 01:00:18;;;;;;;0.85;0.35;;;;;;;;;;5047171;28;20036;-74
2021/05/18 01:02:47;;;;;;;0.73;0.50;;;;;;;;;;5051379;28;20029;-74
2021/05/18 01:05:19;;;;;;;0.63;0.40;;;;;;;;;;5054013;28;20029;-74
2021/05/18 01:07:49;;;;;;;1.38;1.27;;;;;;;;;;5054498;28;20434;-74
2021/05/18 01:10:17;;;;;;;1.60;0.50;;;;;;;;;;5053924;28;20049;-74
2021/05/18 01:12:43;;;;;;;0.70;0.70;;;;;;;;;;5053892;28;20627;-74
2021/05/18 01:15:10;;;;;;;1.05;0.77;;;;;;;;;;5053811;28;20082;-74
2021/05/18 01:17:36;;;;;;;2.00;1.02;;;;;;;;;;5054356;28;20480;-74
2021/05/18 01:20:11;;;;;;;0.45;0.45;;;;;;;;;;5054353;28;20017;-74
2021/05/18 01:22:37;;;;;;;1.52;1.15;;;;;;;;;;5054048;28;20079;-73
2021/05/18 01:25:05;;;;;;;1.92;0.95;;;;;;;;;;5054135;28;20112;-74
2021/05/18 01:27:31;;;;;;;2.13;0.68;;;;;;;;;;5054627;28;20472;-73
2021/05/18 01:29:57;;;;;;;0.77;0.77;;;;;;;;;;5053617;28;20032;-73
2021/05/18 01:32:25;;;;;;;1.33;0.80;;;;;;;;;;5053121;28;20064;-73
2021/05/18 01:34:51;;;;;;;0.95;0.77;;;;;;;;;;5054705;28;20096;-73
2021/05/18 01:37:17;;;;;;;0.90;0.52;;;;;;;;;;5053263;28;20033;-73
2021/05/18 01:39:55;;;;;;;0.88;0.60;;;;;;;;;;5054117;28;20228;-74
2021/05/18 01:45:07;;;;;;;1.63;0.55;;;;;;;;;;5054157;28;20039;-73
2021/05/18 01:47:33;;;;;;;1.27;0.63;;;;;;;;;;5053878;28;20107;-74
2021/05/18 01:50:01;;;;;;;0.68;0.60;;;;;;;;;;5053972;28;20092;-73
2021/05/18 01:52:27;;;;;;;1.45;0.85;;;;;;;;;;5073786;28;20059;-73
2021/05/18 01:54:53;;;;;;;1.48;0.80;;;;;;;;;;5073726;28;20063;-74
2021/05/18 01:57:20;;;;;;;1.35;1.15;;;;;;;;;;5073612;28;20028;-74
2021/05/18 01:59:47;;;;;;;1.52;0.75;;;;;;;;;;5073102;28;20494;-73
2021/05/18 02:02:14;;;;;;;0.68;0.60;;;;;;;;;;5073165;28;20070;-73
2021/05/18 02:04:47;;;;;;;0.90;0.52;;;;;;;;;;5073658;28;20099;-74
2021/05/18 02:07:16;;;;;;;0.82;0.80;;;;;;;;;;5073939;28;20031;-74
2021/05/18 02:09:43;;;;;;;1.40;0.80;;;;;;;;;;5073934;28;20099;-74
2021/05/18 02:12:09;;;;;;;1.10;0.93;;;;;;;;;;5073318;28;20036;-73
2021/05/18 02:14:36;;;;;;;0.50;0.50;;;;;;;;;;5069952;28;20020;-73
2021/05/18 02:19:55;;;;;;;0.90;0.70;;;;;;;;;;5071005;28;20039;-74
2021/05/18 02:25:08;;;;;;;1.25;0.98;;;;;;;;;;5070161;28;20043;-74
2021/05/18 02:27:34;;;;;;;0.55;0.55;;;;;;;;;;5070754;28;20342;-73
2021/05/18 02:30:00;;;;;;;0.85;0.40;;;;;;;;;;5069151;28;20034;-73
2021/05/18 02:32:27;;;;;;;1.75;1.38;;;;;;;;;;5069452;28;20035;-74
2021/05/18 02:34:54;;;;;;;1.90;0.75;;;;;;;;;;5070739;28;20494;-74
2021/05/18 02:37:20;;;;;;;1.50;0.85;;;;;;;;;;5069845;28;20032;-74
2021/05/18 02:39:47;;;;;;;1.20;0.63;;;;;;;;;;5070205;28;20056;-74
2021/05/18 02:42:13;;;;;;;1.02;0.93;;;;;;;;;;5069305;28;20459;-73
2021/05/18 02:50:03;;;;;;;0.63;0.63;;;;;;;;;;5070408;28;20054;-73
2021/05/18 02:52:31;;;;;;;0.50;0.50;;;;;;;;;;5089703;28;20031;-73
2021/05/18 02:54:57;;;;;;;1.15;1.05;;;;;;;;;;5090495;28;20032;-74
2021/05/18 02:57:34;;;;;;;0.90;0.57;;;;;;;;;;5089347;28;20032;-74
2021/05/18 03:00:03;;;;;;;4.03;1.15;;;;;;;;;;5089021;28;20024;-73
2021/05/18 03:02:29;;;;;;;0.55;0.50;;;;;;;;;;5089266;28;20089;-73
2021/05/18 03:04:55;;;;;;;0.93;0.60;;;;;;;;;;5089954;28;20020;-73
2021/05/18 03:07:21;;;;;;;2.78;0.80;;;;;;;;;;5089262;28;20028;-73
2021/05/18 03:09:47;;;;;;;1.02;0.70;;;;;;;;;;5090659;28;20028;-73
2021/05/18 03:12:13;;;;;;;2.65;0.68;;;;;;;;;;5088491;28;20118;-73
2021/05/18 03:14:39;;;;;;;1.73;0.63;;;;;;;;;;5089887;28;20104;-74
2021/05/18 03:17:05;;;;;;;0.98;0.40;;;;;;;;;;5089301;28;20036;-73
2021/05/18 03:19:32;;;;;;;1.20;0.70;;;;;;;;;;5089652;28;20059;-74
2021/05/18 03:21:58;;;;;;;0.93;0.63;;;;;;;;;;5089141;28;20028;-73
2021/05/18 03:24:24;;;;;;;1.13;0.65;;;;;;;;;;5089002;28;20440;-73
2021/05/18 03:26:50;;;;;;;0.65;0.60;;;;;;;;;;5088958;28;20035;-73
2021/05/18 03:29:23;;;;;;;0.85;0.85;;;;;;;;;;5088120;28;20020;-73
2021/05/18 03:34:38;;;;;;;1.15;0.57;;;;;;;;;;5089674;28;20046;-73
2021/05/18 03:37:45;;;;;;;0.70;0.60;;;;;;;;;;5088901;28;20118;-73
2021/05/18 03:40:05;;;;;;;2.42;1.23;;;;;;;;;;5085297;28;20042;-73
2021/05/18 03:42:35;;;;;;;0.80;0.60;;;;;;;;;;5088946;28;20081;-73
2021/05/18 04:17:24;;;;;;;0.52;0.43;;;;;;;;;;5067926;28;20182;-72
2021/05/18 04:39:17;;;;;;;2.42;0.50;;;;;;;;;;5067889;28;20035;-73
2021/05/18 04:42:35;;;;;;;1.15;1.05;;;;;;;;;;5068218;28;20037;-72
2021/05/18 04:50:10;;;;;;;1.17;0.70;;;;;;;;;;5068086;28;20048;-72
2021/05/18 05:00:57;;;;;;;0.90;0.63;;;;;;;;;;4984240;28;20041;-73
2021/05/18 05:14:20;;;;;;;0.40;0.40;;;;;;;;;;5021692;28;20044;-73
2021/05/18 05:16:46;;;;;;;1.90;0.40;;;;;;;;;;5047748;28;20389;-72
2021/05/18 05:19:13;;;;;;;0.85;0.55;;;;;;;;;;5047288;28;20038;-73
2021/05/18 05:21:39;;;;;;;1.08;0.98;;;;;;;;;;5047217;28;20029;-73
2021/05/18 05:24:05;;;;;;;0.68;0.40;;;;;;;;;;5047600;28;20083;-72
2021/05/18 05:26:33;;;;;;;1.17;0.50;;;;;;;;;;5047730;28;20032;-72
2021/05/18 05:28:59;;;;;;;2.80;0.93;;;;;;;;;;5046857;28;20109;-73
2021/05/18 05:31:25;;;;;;;0.40;0.40;;;;;;;;;;5046196;28;20025;-72
2021/05/18 05:33:52;;;;;;;2.22;0.60;;;;;;;;;;5047365;28;20108;-73
2021/05/18 05:36:18;;;;;;;1.20;0.57;;;;;;;;;;5046938;28;20018;-72
2021/05/18 05:38:45;;;;;;;0.70;0.60;;;;;;;;;;5047648;28;20458;-72
2021/05/18 05:41:11;;;;;;;1.25;0.68;;;;;;;;;;5046843;28;20021;-72
2021/05/18 05:43:37;;;;;;;0.95;0.63;;;;;;;;;;5047655;28;20454;-72
2021/05/18 05:46:03;;;;;;;1.05;0.73;;;;;;;;;;5047822;28;20032;-73
2021/05/18 05:48:29;;;;;;;0.65;0.60;;;;;;;;;;5057507;28;20613;-72
2021/05/18 05:50:55;;;;;;;1.13;0.80;;;;;;;;;;5062779;28;20219;-72
2021/05/18 05:53:21;;;;;;;2.60;1.33;;;;;;;;;;5049976;28;20029;-72
2021/05/18 05:55:47;;;;;;;1.27;1.00;;;;;;;;;;5067478;28;20517;-73
2021/05/18 05:58:14;;;;;;;2.08;0.98;;;;;;;;;;5069553;28;20051;-73
2021/05/18 06:00:40;;;;;;;2.75;1.10;;;;;;;;;;5069392;28;20036;-72
2021/05/18 06:03:06;;;;;;;1.40;1.15;;;;;;;;;;5070059;28;20021;-72
2021/05/18 06:05:32;;;;;;;3.42;1.50;;;;;;;;;;5070744;28;20491;-73
2021/05/18 06:07:58;;;;;;;2.83;1.50;;;;;;;;;;5061165;28;20422;-72
2021/05/18 06:10:31;;;;;;;6.55;2.38;;;;;;;;;;5065921;28;20360;-72
2021/05/18 06:34:30;;;;;;;3.38;2.08;;;;;;;;;;5064150;28;20077;-72
2021/05/18 06:37:22;;;;;;;6.57;2.03;;;;;;;;;;5067908;28;20101;-71
2021/05/18 06:47:50;;;;;;;8.32;2.58;;;;;;;;;;5053083;28;20044;-71
2021/05/18 06:52:43;;;;;;;3.55;2.78;;;;;;;;;;5067359;28;20071;-72
2021/05/18 06:55:11;;;;;;;5.57;3.00;;;;;;;;;;5065707;28;20032;-71
2021/05/18 06:57:40;;;;;;;3.53;2.13;;;;;;;;;;5053766;28;20491;-73
2021/05/18 07:00:08;;;;;;;4.68;2.05;;;;;;;;;;5021846;28;21615;-72
2021/05/18 07:02:35;;;;;;;5.43;2.22;;;;;;;;;;5042496;28;20020;-74
2021/05/18 07:05:01;;;;;;;11.57;2.20;;;;;;;;;;5042382;28;20589;-77
2021/05/18 07:07:33;;;;;;;5.10;2.55;;;;;;;;;;5047852;28;20847;-73
2021/05/18 07:10:00;;;;;;;7.60;2.50;;;;;;;;;;5048132;28;20041;-73
2021/05/18 07:12:26;;;;;;;8.98;2.60;;;;;;;;;;5044094;28;20135;-73
2021/05/18 07:14:52;;;;;;;6.45;1.75;;;;;;;;;;5045420;28;20463;-73
2021/05/18 07:17:18;;;;;;;1.77;1.58;;;;;;;;;;5044563;28;20033;-73
2021/05/18 07:19:45;;;;;;;4.68;2.70;;;;;;;;;;5047393;28;20036;-71
2021/05/18 07:22:12;;;;;;;4.72;1.90;;;;;;;;;;5023953;28;20426;-72
2021/05/18 07:24:38;;;;;;;3.08;2.25;;;;;;;;;;5061850;28;20164;-73
2021/05/18 07:27:04;;;;;;;1.92;1.40;;;;;;;;;;5043910;28;20403;-73
2021/05/18 07:29:30;;;;;;;3.83;1.92;;;;;;;;;;5048334;28;20024;-73
2021/05/18 07:31:56;;;;;;;4.40;1.77;;;;;;;;;;5048000;28;20031;-73
2021/05/18 07:34:22;;;;;;;5.82;1.65;;;;;;;;;;5043246;28;20032;-73
2021/05/18 07:36:48;;;;;;;5.57;1.85;;;;;;;;;;5046764;28;20036;-78
2021/05/18 07:39:14;;;;;;;4.32;1.90;;;;;;;;;;5049147;28;20032;-73
2021/05/18 07:41:41;;;;;;;5.85;2.10;;;;;;;;;;5027723;28;20091;-73
2021/05/18 07:44:07;;;;;;;1.52;1.42;;;;;;;;;;5044140;28;20075;-73
2021/05/18 07:46:33;;;;;;;2.78;1.70;;;;;;;;;;5043669;28;20040;-71
2021/05/18 07:51:52;;;;;;;6.00;1.85;;;;;;;;;;5046873;28;20806;-80
2021/05/18 08:00:23;;;;;;;2.88;1.58;;;;;;;;;;5040032;28;20051;-74
2021/05/18 08:05:23;;;;;;;2.40;1.90;;;;;;;;;;5043376;28;21090;-74
2021/05/18 08:07:49;;;;;;;2.38;1.50;;;;;;;;;;5040041;28;20048;-74
2021/05/18 08:10:20;;;;;;;2.78;1.20;;;;;;;;;;5040473;28;20025;-74
2021/05/18 08:12:46;;;;;;;3.00;2.13;;;;;;;;;;5039917;28;20710;-74
2021/05/18 10:35:35;;;;;;;3.85;2.72;;;;;;;;;;5053135;28;20044;-73
2021/05/18 10:38:04;;;;;;;5.80;2.70;;;;;;;;;;5058465;28;20056;-72
2021/05/18 10:40:37;;;;;;;3.92;2.00;;;;;;;;;;5058136;28;20032;-73
2021/05/18 10:43:03;;;;;;;8.43;2.88;;;;;;;;;;5050749;28;20040;-72
2021/05/18 10:45:48;;;;;;;4.38;1.73;;;;;;;;;;5056065;28;20042;-74
2021/05/18 10:48:15;;;;;;;2.28;1.50;;;;;;;;;;5054241;28;20052;-74
2021/05/18 10:50:43;;;;;;;3.13;1.70;;;;;;;;;;5058240;28;20495;-74
2021/05/18 10:53:22;;;;;;;8.57;2.63;;;;;;;;;;5056816;28;20032;-74
2021/05/18 10:56:07;;;;;;;3.05;1.55;;;;;;;;;;5054661;28;20343;-74
2021/05/18 10:58:33;;;;;;;2.53;1.52;;;;;;;;;;5054414;28;20024;-74
2021/05/18 11:01:03;;;;;;;3.67;1.85;;;;;;;;;;5056053;28;21508;-74
2021/05/18 11:03:29;;;;;;;3.00;2.20;;;;;;;;;;5054310;28;20051;-74
2021/05/18 11:06:04;;;;;;;5.65;2.08;;;;;;;;;;5055255;28;20068;-74
2021/05/18 11:08:31;;;;;;;3.88;2.10;;;;;;;;;;5056388;28;20040;-74
2021/05/18 11:10:57;;;;;;;5.95;1.73;;;;;;;;;;5055848;28;20081;-74
2021/05/18 11:13:23;;;;;;;3.15;1.60;;;;;;;;;;5054258;28;20113;-74
2021/05/18 11:15:49;;;;;;;3.28;1.45;;;;;;;;;;5053990;28;20081;-80
2021/05/18 11:18:15;;;;;;;4.97;2.38;;;;;;;;;;5056749;28;20029;-74
2021/05/18 11:25:54;;;;;;;4.57;1.05;;;;;;;;;;5054788;28;20067;-73
2021/05/18 11:28:29;;;;;;;3.10;1.23;;;;;;;;;;5053918;28;20017;-74
2021/05/18 11:30:56;;;;;;;3.50;1.58;;;;;;;;;;5052410;28;20118;-75
2021/05/18 11:33:29;;;;;;;12.88;2.65;;;;;;;;;;5041861;28;20055;-74
2021/05/18 11:36:04;;;;;;;5.17;2.43;;;;;;;;;;5052975;28;20596;-75
2021/05/18 11:38:33;;;;;;;2.58;1.42;;;;;;;;;;5050742;28;20032;-73
2021/05/18 11:40:59;;;;;;;3.13;1.58;;;;;;;;;;5051434;28;20047;-73
2021/05/18 11:43:37;;;;;;;3.90;1.45;;;;;;;;;;5053079;28;20053;-73
2021/05/18 11:46:11;;;;;;;4.53;2.50;;;;;;;;;;5048834;28;20908;-73
2021/05/18 11:48:39;;;;;;;4.68;1.58;;;;;;;;;;5057001;28;20514;-72
2021/05/18 11:51:15;;;;;;;2.38;1.48;;;;;;;;;;5047696;28;20040;-72
2021/05/18 11:53:45;;;;;;;4.05;1.48;;;;;;;;;;5053605;28;20025;-73
2021/05/18 11:56:15;;;;;;;3.50;1.58;;;;;;;;;;5053893;28;20113;-72
2021/05/18 11:58:41;;;;;;;5.30;1.48;;;;;;;;;;5056744;28;20033;-78
2021/05/18 12:01:07;;;;;;;1.58;1.05;;;;;;;;;;5055931;28;20039;-72
2021/05/18 12:03:35;;;;;;;5.20;2.47;;;;;;;;;;5055132;28;20033;-72
2021/05/18 12:06:03;;;;;;;2.35;1.83;;;;;;;;;;5053307;28;20033;-72
2021/05/18 12:08:29;;;;;;;3.97;1.88;;;;;;;;;;5053926;28;20059;-76
2021/05/18 12:10:55;;;;;;;3.00;2.00;;;;;;;;;;5055897;28;20033;-75
2021/05/18 12:13:28;;;;;;;3.45;1.55;;;;;;;;;;5054977;28;20028;-72
2021/05/18 12:16:07;;;;;;;4.75;1.55;;;;;;;;;;5053704;28;20643;-72
2021/05/18 12:18:34;;;;;;;3.97;1.45;;;;;;;;;;5054758;28;20087;-72
2021/05/18 12:21:05;;;;;;;3.78;1.65;;;;;;;;;;5057495;28;20044;-72
2021/05/18 12:23:31;;;;;;;5.72;1.25;;;;;;;;;;5051987;28;20039;-72
2021/05/18 12:26:14;;;;;;;12.07;2.47;;;;;;;;;;5053778;28;20045;-72
2021/05/18 12:29:13;;;;;;;8.37;1.20;;;;;;;;;;5053959;28;20127;-73
2021/05/18 12:31:39;;;;;;;3.30;1.25;;;;;;;;;;5028075;28;20494;-72
2021/05/18 12:34:06;;;;;;;1.67;1.20;;;;;;;;;;5051379;28;20050;-72
2021/05/18 12:36:45;;;;;;;2.15;0.93;;;;;;;;;;5055760;28;20758;-72
2021/05/18 12:39:15;;;;;;;5.15;1.48;;;;;;;;;;5054754;28;20655;-73
2021/05/18 12:41:59;;;;;;;4.18;1.45;;;;;;;;;;5052284;28;20028;-73
2021/05/18 12:44:25;;;;;;;;;;;;;;;;;;5052780;28;20494;-73
2021/05/18 12:46:55;;;;;;;2.15;0.80;;;;;;;;;;5056131;28;19904;-72
2021/05/18 12:49:25;;;;;;;4.93;1.05;;;;;;;;;;5055570;28;20093;-72
2021/05/18 12:52:02;;;;;;;4.18;1.90;;;;;;;;;;5054795;28;20032;-73
2021/05/18 12:54:42;;;;;;;4.30;1.83;;;;;;;;;;5052756;28;20036;-72
2021/05/18 12:57:09;;;;;;;6.25;1.27;;;;;;;;;;5053778;28;20570;-72
2021/05/18 12:59:35;;;;;;;4.07;1.50;;;;;;;;;;5055573;28;20021;-72
2021/05/18 13:02:01;;;;;;;2.58;1.42;;;;;;;;;;5049255;28;20123;-74
2021/05/18 13:04:27;;;;;;;5.63;1.73;;;;;;;;;;5050719;28;20064;-73
2021/05/18 13:06:54;;;;;;;6.30;1.70;;;;;;;;;;5051121;28;20036;-73
2021/05/18 13:09:21;;;;;;;2.83;1.75;;;;;;;;;;5052225;28;20572;-73
2021/05/18 13:14:50;;;;;;;6.00;1.73;;;;;;;;;;5047568;28;20118;-76
2021/05/18 13:17:17;;;;;;;1.35;1.00;;;;;;;;;;5045707;28;20052;-73
2021/05/18 13:19:43;;;;;;;3.03;1.35;;;;;;;;;;5055501;28;20028;-74
2021/05/18 13:22:09;;;;;;;4.03;2.50;;;;;;;;;;5048433;28;20042;-73
2021/05/18 13:27:19;;;;;;;3.80;1.70;;;;;;;;;;5041793;28;20655;-74
2021/05/18 13:29:46;;;;;;;3.03;1.33;;;;;;;;;;5052080;28;20103;-74
2021/05/18 13:32:12;;;;;;;3.75;1.40;;;;;;;;;;5046890;28;20086;-74
2021/05/18 13:34:38;;;;;;;5.18;1.77;;;;;;;;;;5052123;28;20119;-75
2021/05/18 13:37:04;;;;;;;5.50;1.83;;;;;;;;;;5053665;28;20423;-74
2021/05/18 13:39:30;;;;;;;2.47;1.13;;;;;;;;;;5052550;28;20029;-74
2021/05/18 13:41:56;;;;;;;2.35;1.35;;;;;;;;;;5052153;28;20033;-74
2021/05/18 13:44:22;;;;;;;5.13;1.10;;;;;;;;;;5049003;28;21911;-85
2021/05/18 13:46:49;;;;;;;1.85;1.17;;;;;;;;;;5031238;28;20468;-73
2021/05/18 13:49:15;;;;;;;6.50;1.50;;;;;;;;;;5045282;28;20052;-74
2021/05/18 13:51:42;;;;;;;1.27;1.05;;;;;;;;;;5051558;28;20435;-74
2021/05/18 13:54:08;;;;;;;5.00;2.47;;;;;;;;;;5047691;28;20052;-75
2021/05/18 13:56:34;;;;;;;3.90;1.27;;;;;;;;;;5047950;28;20241;-75
2021/05/18 13:59:00;;;;;;;3.33;1.23;;;;;;;;;;5050093;28;20048;-76
2021/05/18 14:01:26;;;;;;;0.90;0.80;;;;;;;;;;5048406;28;20028;-75
2021/05/18 14:03:56;;;;;;;9.30;2.42;;;;;;;;;;5048851;28;20035;-74
2021/05/18 14:06:22;;;;;;;1.30;1.20;;;;;;;;;;5044490;28;20033;-73
2021/05/18 14:08:49;;;;;;;3.15;1.05;;;;;;;;;;5049441;28;20030;-75
2021/05/18 14:11:18;;;;;;;2.47;1.05;;;;;;;;;;5054098;28;20165;-74
2021/05/18 14:13:46;;;;;;;2.67;1.35;;;;;;;;;;5051856;28;20482;-75
2021/05/18 14:16:18;;;;;;;3.00;1.30;;;;;;;;;;5050491;28;20041;-74
2021/05/18 14:18:46;;;;;;;4.47;1.25;;;;;;;;;;5053734;28;20722;-75
2021/05/18 14:21:12;;;;;;;4.47;1.35;;;;;;;;;;5053359;28;20596;-72
2021/05/18 14:26:11;;;;;;;4.90;1.48;;;;;;;;;;5051274;28;20051;-75
2021/05/18 14:28:37;;;;;;;3.15;1.13;;;;;;;;;;5038233;28;20071;-74
2021/05/18 14:31:08;;;;;;;1.02;1.00;;;;;;;;;;5051569;28;20047;-74
2021/05/18 14:33:35;;;;;;;4.13;1.73;;;;;;;;;;5053440;28;20564;-74
2021/05/18 14:36:01;;;;;;;4.38;1.25;;;;;;;;;;5051508;28;20033;-74
2021/05/18 14:38:28;;;;;;;10.25;2.65;;;;;;;;;;5054574;28;20116;-74
2021/05/18 14:56:51;;;;;;;9.75;2.05;;;;;;;;;;5037959;28;20036;-74
2021/05/18 14:59:17;;;;;;;9.60;2.85;;;;;;;;;;5052352;28;20146;-74
2021/05/18 15:01:43;;;;;;;3.28;2.38;;;;;;;;;;5053347;28;20027;-74
2021/05/18 15:04:09;;;;;;;13.88;2.33;;;;;;;;;;5047233;28;20055;-74
2021/05/18 15:06:35;;;;;;;4.70;1.73;;;;;;;;;;5053434;28;20718;-74
2021/05/18 15:09:01;;;;;;;7.75;2.42;;;;;;;;;;5051099;28;20036;-73
2021/05/18 15:11:27;;;;;;;7.90;2.17;;;;;;;;;;5050725;28;20044;-73
2021/05/18 15:13:54;;;;;;;6.43;2.65;;;;;;;;;;5051729;28;20029;-73
2021/05/18 15:16:21;;;;;;;13.15;2.88;;;;;;;;;;5052679;28;20067;-73
2021/05/18 15:18:50;;;;;;;8.45;3.03;;;;;;;;;;5052613;28;20483;-72
2021/05/18 15:21:17;;;;;;;7.65;3.00;;;;;;;;;;5051811;28;20064;-73
2021/05/18 15:23:44;;;;;;;7.95;2.83;;;;;;;;;;5053298;28;20619;-73
2021/05/18 15:26:10;;;;;;;9.45;2.95;;;;;;;;;;5050473;28;20033;-74
2021/05/18 15:28:41;;;;;;;8.02;2.55;;;;;;;;;;5054846;28;20029;-75
2021/05/18 15:31:07;;;;;;;8.60;2.53;;;;;;;;;;5061680;28;20020;-75
2021/05/18 15:33:33;;;;;;;7.88;2.88;;;;;;;;;;5058982;28;20028;-73
2021/05/18 15:35:59;;;;;;;3.53;2.08;;;;;;;;;;5063962;28;20263;-73
2021/05/18 15:38:25;;;;;;;7.22;2.00;;;;;;;;;;5067959;28;20104;-73
2021/05/18 15:40:51;;;;;;;5.45;2.28;;;;;;;;;;5075461;28;20369;-74
2021/05/18 15:43:17;;;;;;;9.57;2.70;;;;;;;;;;5072285;28;20047;-74
2021/05/18 15:45:44;;;;;;;7.00;2.53;;;;;;;;;;5085546;28;20028;-73
2021/05/18 15:48:10;;;;;;;4.93;2.60;;;;;;;;;;5083804;28;20131;-73
2021/05/18 15:50:36;;;;;;;12.68;3.40;;;;;;;;;;5080037;28;20032;-73
2021/05/18 15:53:03;;;;;;;6.65;2.17;;;;;;;;;;5080756;28;20509;-72
2021/05/18 15:55:29;;;;;;;8.00;2.03;;;;;;;;;;5086341;28;20036;-73
2021/05/18 15:57:55;;;;;;;6.72;2.70;;;;;;;;;;5086216;28;20032;-75
2021/05/18 16:00:21;;;;;;;7.45;2.28;;;;;;;;;;5084206;28;20027;-74
2021/05/18 16:02:48;;;;;;;7.10;2.40;;;;;;;;;;5079279;28;20058;-74
2021/05/18 16:05:14;;;;;;;4.97;2.15;;;;;;;;;;5085138;28;20067;-75
2021/05/18 16:07:43;;;;;;;4.82;2.00;;;;;;;;;;5086437;28;20313;-75
2021/05/18 16:10:09;;;;;;;3.20;1.63;;;;;;;;;;5066131;28;20020;-74
2021/05/18 16:12:35;;;;;;;5.35;1.65;;;;;;;;;;5063228;28;20039;-73
2021/05/18 16:15:01;;;;;;;4.55;1.67;;;;;;;;;;5064657;28;20421;-74
2021/05/18 16:17:27;;;;;;;4.85;2.50;;;;;;;;;;5065906;28;20131;-74
2021/05/18 16:19:53;;;;;;;5.47;2.28;;;;;;;;;;5061569;28;20028;-74
2021/05/18 16:22:19;;;;;;;5.43;2.15;;;;;;;;;;5061370;28;20495;-75
2021/05/18 16:24:45;;;;;;;6.22;1.90;;;;;;;;;;5065923;28;20395;-74
2021/05/18 16:27:15;;;;;;;4.70;2.03;;;;;;;;;;5066002;28;20119;-74
2021/05/18 16:29:41;;;;;;;4.00;2.63;;;;;;;;;;5065464;28;20543;-74
2021/05/18 16:32:07;;;;;;;5.53;2.22;;;;;;;;;;5064236;28;20094;-75
2021/05/18 16:34:33;;;;;;;2.08;1.50;;;;;;;;;;5066518;28;20032;-74
2021/05/18 16:37:00;;;;;;;5.15;1.92;;;;;;;;;;5065730;28;20075;-74
2021/05/18 16:39:26;;;;;;;32.08;4.50;;;;;;;;;;5063952;28;20475;-74
2021/05/18 16:41:55;;;;;;;18.80;3.60;;;;;;;;;;5064748;28;20032;-74
2021/05/18 16:44:22;;;;;;;18.83;2.83;;;;;;;;;;5065990;28;20078;-73
2021/05/18 16:46:48;;;;;;;16.83;2.47;;;;;;;;;;5066299;28;20032;-74
2021/05/18 16:49:15;;;;;;;11.43;2.92;;;;;;;;;;5065690;28;20519;-75
2021/05/18 16:51:41;;;;;;;7.72;1.85;;;;;;;;;;5068634;28;20020;-74
2021/05/18 16:54:08;;;;;;;3.35;2.63;;;;;;;;;;5065503;28;20043;-75
2021/05/18 16:56:34;;;;;;;11.50;2.38;;;;;;;;;;5066396;28;20048;-74
2021/05/18 16:59:00;;;;;;;9.30;2.00;;;;;;;;;;5064894;28;20112;-74
2021/05/18 17:01:26;;;;;;;4.93;1.92;;;;;;;;;;5064115;28;20036;-74
2021/05/18 17:03:53;;;;;;;6.82;1.92;;;;;;;;;;5066230;28;20056;-75
2021/05/18 17:06:19;;;;;;;7.47;2.47;;;;;;;;;;5065710;28;20107;-75
2021/05/18 17:08:45;;;;;;;2.35;1.58;;;;;;;;;;5066149;28;20062;-74
2021/05/18 17:11:11;;;;;;;1.55;1.35;;;;;;;;;;5065116;28;20499;-74
2021/05/18 17:13:38;;;;;;;4.13;1.85;;;;;;;;;;5067369;28;20107;-74
2021/05/18 17:16:05;;;;;;;4.90;1.35;;;;;;;;;;5067118;28;20052;-74
2021/05/18 17:18:31;;;;;;;7.60;2.00;;;;;;;;;;5067566;28;20107;-74
2021/05/18 17:20:58;;;;;;;3.05;1.60;;;;;;;;;;5067563;28;20032;-74
2021/05/18 17:23:24;;;;;;;4.82;1.05;;;;;;;;;;5066717;28;20085;-75
2021/05/18 17:25:50;;;;;;;5.05;1.45;;;;;;;;;;5068486;28;20047;-74
2021/05/18 17:28:17;;;;;;;1.67;1.35;;;;;;;;;;5067106;28;20090;-74
2021/05/18 17:30:43;;;;;;;2.90;1.20;;;;;;;;;;5066778;28;20036;-74
2021/05/18 17:33:15;;;;;;;3.50;1.40;;;;;;;;;;5065776;28;20032;-75
2021/05/18 17:35:42;;;;;;;2.63;1.10;;;;;;;;;;5066815;28;20036;-74
2021/05/18 17:38:08;;;;;;;1.70;1.33;;;;;;;;;;5066000;28;20064;-74
2021/05/18 17:40:38;;;;;;;3.67;1.48;;;;;;;;;;5066671;28;20039;-75
2021/05/18 17:43:05;;;;;;;2.35;1.45;;;;;;;;;;5065592;28;20510;-76
2021/05/18 17:45:31;;;;;;;4.32;1.77;;;;;;;;;;5070504;28;20410;-76
2021/05/18 17:47:57;;;;;;;3.05;1.33;;;;;;;;;;5070599;28;20057;-73
2021/05/18 17:50:24;;;;;;;2.67;0.80;;;;;;;;;;5073289;28;20031;-73
2021/05/18 17:52:50;;;;;;;1.85;1.13;;;;;;;;;;5090903;28;20028;-75
2021/05/18 17:55:18;;;;;;;3.88;1.55;;;;;;;;;;5090184;28;20077;-73
2021/05/18 17:57:44;;;;;;;2.75;1.33;;;;;;;;;;5091447;28;20424;-74
2021/05/18 18:00:11;;;;;;;3.13;0.80;;;;;;;;;;5089268;28;20390;-76
2021/05/18 18:02:37;;;;;;;3.10;0.73;;;;;;;;;;5089949;28;20458;-75
2021/05/18 18:05:04;;;;;;;2.05;0.77;;;;;;;;;;5089352;28;20208;-76
2021/05/18 18:07:30;;;;;;;2.17;0.68;;;;;;;;;;5091014;28;20016;-76
2021/05/18 18:09:58;;;;;;;1.25;1.15;;;;;;;;;;5089953;28;20024;-75
2021/05/18 18:12:24;;;;;;;1.52;1.15;;;;;;;;;;5090071;28;20024;-75
2021/05/18 18:14:50;;;;;;;0.82;0.82;;;;;;;;;;5089928;28;20078;-75
2021/05/18 18:17:19;;;;;;;1.13;0.60;;;;;;;;;;5089907;28;20576;-76
2021/05/18 18:19:46;;;;;;;1.73;0.70;;;;;;;;;;5090878;28;20028;-75
2021/05/18 18:22:12;;;;;;;2.03;0.90;;;;;;;;;;5088934;28;20051;-76
2021/05/18 18:24:39;;;;;;;0.90;0.85;;;;;;;;;;5091294;28;20020;-76
2021/05/18 18:27:09;;;;;;;2.78;0.73;;;;;;;;;;5089271;28;20030;-76
2021/05/18 18:29:35;;;;;;;1.10;0.95;;;;;;;;;;5089923;28;20509;-76
2021/05/18 18:32:02;;;;;;;0.70;0.70;;;;;;;;;;5088194;28;20376;-75
2021/05/18 18:34:28;;;;;;;1.27;0.50;;;;;;;;;;5089821;28;20059;-75
2021/05/18 18:36:55;;;;;;;0.85;0.60;;;;;;;;;;5090316;28;20025;-75
2021/05/18 18:39:22;;;;;;;1.33;0.70;;;;;;;;;;5089712;28;20502;-75
2021/05/18 18:41:49;;;;;;;1.88;0.80;;;;;;;;;;5089690;28;20062;-76
2021/05/18 18:44:15;;;;;;;1.42;0.93;;;;;;;;;;5089311;28;20119;-76
2021/05/18 18:46:42;;;;;;;1.75;1.00;;;;;;;;;;5090520;28;20024;-75
2021/05/18 18:49:10;;;;;;;1.65;0.60;;;;;;;;;;5087970;28;20052;-75
2021/05/18 18:51:37;;;;;;;1.23;1.13;;;;;;;;;;5076292;28;20111;-75
2021/05/18 18:54:04;;;;;;;3.00;0.80;;;;;;;;;;5068749;28;20039;-75
2021/05/18 18:56:31;;;;;;;2.47;0.90;;;;;;;;;;5067762;28;20028;-75
2021/05/18 18:58:57;;;;;;;1.10;0.93;;;;;;;;;;5068966;28;20028;-75
2021/05/18 19:01:31;;;;;;;0.75;0.63;;;;;;;;;;5068716;28;20028;-75
2021/05/18 19:04:05;;;;;;;1.00;1.00;;;;;;;;;;5067019;28;20452;-75
2021/05/18 19:06:51;;;;;;;1.52;0.70;;;;;;;;;;5069853;28;20074;-75
2021/05/18 19:12:40;;;;;;;1.90;1.10;;;;;;;;;;5069598;28;20081;-75
2021/05/18 19:14:44;;;;;;;0.68;0.68;;;;;;;;;;5066472;28;20124;-75
2021/05/18 19:17:10;;;;;;;0.50;0.50;;;;;;;;;;5069039;28;20035;-75
2021/05/18 19:19:37;;;;;;;1.95;0.40;;;;;;;;;;5068423;28;20606;-75
2021/05/18 19:22:03;;;;;;;0.88;0.65;;;;;;;;;;5067783;28;20031;-75
2021/05/18 19:24:30;;;;;;;3.58;0.90;;;;;;;;;;5067806;28;20023;-75
2021/05/18 19:26:57;;;;;;;3.42;1.23;;;;;;;;;;5069330;28;20025;-75
2021/05/18 19:29:23;;;;;;;1.05;0.80;;;;;;;;;;5065602;28;20032;-75
2021/05/18 19:31:50;;;;;;;0.40;0.40;;;;;;;;;;5067901;28;20024;-74
2021/05/18 19:34:34;;;;;;;0.93;0.50;;;;;;;;;;5068711;28;20411;-74
2021/05/18 19:37:06;;;;;;;1.52;0.70;;;;;;;;;;5065882;28;20037;-74
2021/05/18 19:42:29;;;;;;;1.00;0.70;;;;;;;;;;5067371;28;20093;-75
2021/05/18 19:48:00;;;;;;;1.42;0.82;;;;;;;;;;5068339;28;20028;-75
2021/05/18 19:50:27;;;;;;;1.17;0.40;;;;;;;;;;5071107;28;20039;-74
2021/05/18 19:53:02;;;;;;;1.80;0.65;;;;;;;;;;5088211;28;20034;-74
2021/05/18 19:55:34;;;;;;;1.00;0.70;;;;;;;;;;5088417;28;20024;-74
2021/05/18 19:58:48;;;;;;;0.65;0.60;;;;;;;;;;5086147;28;20058;-75
2021/05/18 20:17:40;;;;;;;0.70;0.70;;;;;;;;;;5087668;28;20081;-74
2021/05/18 20:19:48;;;;;;;0.70;0.70;;;;;;;;;;5077292;28;20528;-74
2021/05/18 20:22:17;;;;;;;;;;;;;;;;;;5086824;28;20375;-74
2021/05/18 20:24:44;;;;;;;0.75;0.70;;;;;;;;;;5088157;28;19904;-74